createdAt,value
2022-08-29T00:00:30.499Z,99370.00
2022-08-29T00:03:00.225Z,99377.38
2022-08-29T00:05:30.464Z,99381.97
2022-08-29T00:07:58.623Z,99378.63
2022-08-29T00:10:26.740Z,99371.84
2022-08-29T00:12:54.869Z,99378.41
2022-08-29T00:15:25.001Z,99382.31
2022-08-29T00:17:51.601Z,99379.22
2022-08-29T00:20:21.957Z,99375.94
2022-08-29T00:22:58.445Z,99372.97
2022-08-29T00:25:25.942Z,99379.66
2022-08-29T00:27:52.810Z,99378.91
2022-08-29T00:30:21.760Z,99378.06
2022-08-29T00:32:48.645Z,99382.69
2022-08-29T00:35:18.844Z,99380.66
2022-08-29T00:37:46.342Z,99387.06
2022-08-29T00:40:17.470Z,99380.09
2022-08-29T00:42:44.440Z,99385.63
2022-08-29T00:45:13.420Z,99388.53
2022-08-29T00:47:46.085Z,99384.44
2022-08-29T00:50:40.647Z,99386.63
2022-08-29T00:53:11.310Z,99393.31
2022-08-29T00:55:40.657Z,99397.88
2022-08-29T00:58:18.546Z,99401.66
2022-08-29T01:00:47.229Z,99399.97
2022-08-29T01:03:14.042Z,99398.78
2022-08-29T01:05:42.870Z,99398.78
2022-08-29T01:08:09.451Z,99402.41
2022-08-29T01:10:55.034Z,99403.25
2022-08-29T01:13:31.518Z,99399.00
2022-08-29T01:15:59.310Z,99393.69
2022-08-29T01:18:29.213Z,99400.00
2022-08-29T01:21:04.449Z,99399.50
2022-08-29T01:23:51.228Z,99388.31
2022-08-29T01:26:18.022Z,99402.81
2022-08-29T01:28:50.379Z,99398.31
2022-08-29T01:31:37.210Z,99404.84
2022-08-29T01:34:13.375Z,99397.16
2022-08-29T01:36:53.566Z,99402.56
2022-08-29T01:39:22.953Z,99398.47
2022-08-29T01:41:50.252Z,99402.34
2022-08-29T01:44:20.376Z,99402.44
2022-08-29T01:46:56.049Z,99401.13
2022-08-29T01:49:26.057Z,99407.41
2022-08-29T01:51:52.642Z,99407.53
2022-08-29T01:54:19.856Z,99412.13
2022-08-29T01:56:49.542Z,99400.78
2022-08-29T01:59:20.168Z,99404.41
2022-08-29T02:01:57.156Z,99411.66
2022-08-29T02:04:24.243Z,99410.44
2022-08-29T02:06:50.931Z,99408.75
2022-08-29T02:09:17.754Z,99413.47
2022-08-29T02:11:46.515Z,99415.28
2022-08-29T02:14:19.024Z,99419.00
2022-08-29T02:16:46.123Z,99416.72
2022-08-29T02:19:12.675Z,99420.31
2022-08-29T02:21:39.532Z,99415.28
2022-08-29T02:24:23.911Z,99418.03
2022-08-29T02:26:51.759Z,99419.38
2022-08-29T02:29:18.336Z,99410.69
2022-08-29T02:31:44.952Z,99417.19
2022-08-29T02:34:12.924Z,99418.25
2022-08-29T02:36:41.383Z,99418.63
2022-08-29T02:39:08.543Z,99422.47
2022-08-29T02:41:36.040Z,99413.78
2022-08-29T02:44:03.768Z,99426.31
2022-08-29T02:46:30.761Z,99424.78
2022-08-29T02:49:00.405Z,99422.34
2022-08-29T02:51:31.220Z,99418.09
2022-08-29T02:53:58.407Z,99422.56
2022-08-29T02:56:25.488Z,99425.34
2022-08-29T02:58:52.023Z,99426.78
2022-08-29T03:01:20.846Z,99429.44
2022-08-29T03:03:48.260Z,99429.66
2022-08-29T03:06:14.811Z,99431.59
2022-08-29T03:08:41.359Z,99432.63
2022-08-29T03:11:08.320Z,99434.53
2022-08-29T03:13:35.167Z,99432.03
2022-08-29T03:16:04.817Z,99430.53
2022-08-29T03:18:31.647Z,99424.53
2022-08-29T03:20:58.400Z,99429.09
2022-08-29T03:23:25.141Z,99429.31
2022-08-29T03:25:51.759Z,99425.94
2022-08-29T03:28:18.644Z,99426.16
2022-08-29T03:30:45.511Z,99426.41
2022-08-29T03:33:12.285Z,99429.16
2022-08-29T03:35:39.613Z,99422.28
2022-08-29T03:38:06.669Z,99433.88
2022-08-29T03:40:33.963Z,99429.63
2022-08-29T03:43:00.939Z,99434.28
2022-08-29T03:45:27.633Z,99429.25
2022-08-29T03:47:54.213Z,99431.28
2022-08-29T03:50:21.493Z,99430.44
2022-08-29T03:52:48.972Z,99428.84
2022-08-29T03:55:16.383Z,99429.91
2022-08-29T03:57:43.324Z,99424.75
2022-08-29T04:00:16.150Z,99424.75
2022-08-29T04:02:46.107Z,99427.59
2022-08-29T04:05:13.995Z,99425.06
2022-08-29T04:07:58.611Z,99432.41
2022-08-29T04:10:31.841Z,99434.94
2022-08-29T04:12:58.829Z,99440.34
2022-08-29T04:15:27.682Z,99447.56
2022-08-29T04:17:56.519Z,99445.25
2022-08-29T04:20:25.828Z,99442.00
2022-08-29T04:22:54.226Z,99449.28
2022-08-29T04:25:22.525Z,99452.88
2022-08-29T04:27:49.633Z,99455.44
2022-08-29T04:30:20.348Z,99460.13
2022-08-29T04:32:47.417Z,99462.88
2022-08-29T04:35:15.056Z,99468.28
2022-08-29T04:37:42.510Z,99477.91
2022-08-29T04:40:13.695Z,99469.00
2022-08-29T04:42:40.716Z,99469.13
2022-08-29T04:45:09.649Z,99469.22
2022-08-29T04:47:36.526Z,99469.22
2022-08-29T04:50:03.649Z,99470.91
2022-08-29T04:52:30.391Z,99463.81
2022-08-29T04:54:57.207Z,99464.78
2022-08-29T04:57:24.767Z,99461.28
2022-08-29T05:00:01.403Z,99461.50
2022-08-29T05:02:28.837Z,99464.16
2022-08-29T05:04:56.811Z,99465.88
2022-08-29T05:07:26.130Z,99465.88
2022-08-29T05:10:02.237Z,99465.88
2022-08-29T05:12:31.010Z,99473.81
2022-08-29T05:14:57.745Z,99470.31
2022-08-29T05:17:25.132Z,99466.81
2022-08-29T05:19:52.111Z,99472.00
2022-08-29T05:22:20.404Z,99474.31
2022-08-29T05:24:47.469Z,99473.22
2022-08-29T05:27:17.772Z,99464.22
2022-08-29T05:29:46.954Z,99471.97
2022-08-29T05:32:15.062Z,99475.97
2022-08-29T05:34:43.321Z,99469.59
2022-08-29T05:37:14.685Z,99476.56
2022-08-29T05:39:42.095Z,99469.13
2022-08-29T05:42:10.168Z,99479.28
2022-08-29T05:44:37.280Z,99483.28
2022-08-29T05:47:05.862Z,99485.81
2022-08-29T05:49:32.839Z,99482.72
2022-08-29T05:52:00.715Z,99484.06
2022-08-29T05:54:29.488Z,99480.84
2022-08-29T05:56:57.120Z,99482.09
2022-08-29T05:59:23.688Z,99486.94
2022-08-29T06:01:50.244Z,99482.88
2022-08-29T06:04:18.790Z,99482.44
2022-08-29T06:06:45.443Z,99492.34
2022-08-29T06:09:13.117Z,99487.31
2022-08-29T06:11:39.871Z,99494.81
2022-08-29T06:14:07.003Z,99489.78
2022-08-29T06:16:33.834Z,99488.34
2022-08-29T06:19:00.831Z,99484.25
2022-08-29T06:21:27.495Z,99498.50
2022-08-29T06:23:54.724Z,99489.78
2022-08-29T06:26:21.419Z,99488.50
2022-08-29T06:28:48.447Z,99491.28
2022-08-29T06:31:24.833Z,99495.13
2022-08-29T06:33:53.094Z,99479.56
2022-08-29T06:36:20.088Z,99489.31
2022-08-29T06:38:47.589Z,99493.91
2022-08-29T06:41:16.532Z,99487.84
2022-08-29T06:43:43.508Z,99492.91
2022-08-29T06:46:23.145Z,99494.56
2022-08-29T06:48:50.517Z,99499.53
2022-08-29T06:51:17.201Z,99488.34
2022-08-29T06:53:44.294Z,99489.94
2022-08-29T06:56:11.606Z,99496.16
2022-08-29T06:58:38.752Z,99492.84
2022-08-29T07:01:07.471Z,99485.16
2022-08-29T07:03:34.819Z,99485.13
2022-08-29T07:06:01.591Z,99488.44
2022-08-29T07:08:28.129Z,99477.38
2022-08-29T07:10:54.872Z,99480.63
2022-08-29T07:13:21.567Z,99486.75
2022-08-29T07:15:48.272Z,99486.53
2022-08-29T07:18:15.080Z,99477.25
2022-08-29T07:20:41.783Z,99482.34
2022-08-29T07:23:09.214Z,99475.88
2022-08-29T07:25:37.360Z,99477.94
2022-08-29T07:28:05.468Z,99475.03
2022-08-29T07:30:32.841Z,99476.66
2022-08-29T07:33:00.124Z,99474.47
2022-08-29T07:35:30.360Z,99481.34
2022-08-29T07:38:03.549Z,99481.31
2022-08-29T07:40:30.454Z,99482.84
2022-08-29T07:42:57.176Z,99484.63
2022-08-29T07:45:23.722Z,99486.56
2022-08-29T07:47:50.325Z,99482.84
2022-08-29T07:50:17.143Z,99481.75
2022-08-29T07:52:43.771Z,99480.03
2022-08-29T07:55:10.426Z,99484.63
2022-08-29T07:57:40.010Z,99471.75
2022-08-29T08:00:11.956Z,99468.56
2022-08-29T08:02:38.686Z,99476.44
2022-08-29T08:05:06.776Z,99475.81
2022-08-29T08:10:08.075Z,99479.63
2022-08-29T08:12:34.614Z,99473.94
2022-08-29T08:15:01.214Z,99473.94
2022-08-29T08:17:27.856Z,99477.47
2022-08-29T08:19:54.439Z,99480.69
2022-08-29T08:22:21.001Z,99480.00
2022-08-29T08:24:48.596Z,99489.88
2022-08-29T08:27:15.156Z,99489.78
2022-08-29T08:29:43.822Z,99486.56
2022-08-29T08:32:10.456Z,99484.72
2022-08-29T08:34:37.097Z,99479.88
2022-08-29T08:37:10.244Z,99482.03
2022-08-29T08:39:37.626Z,99484.88
2022-08-29T08:42:24.838Z,99484.88
2022-08-29T08:45:27.030Z,99479.31
2022-08-29T08:48:01.079Z,99480.00
2022-08-29T08:50:45.701Z,99475.13
2022-08-29T08:53:21.561Z,99475.28
2022-08-29T08:55:51.472Z,99477.28
2022-08-29T08:58:17.998Z,99476.63
2022-08-29T09:00:58.585Z,99478.97
2022-08-29T09:03:48.808Z,99477.31
2022-08-29T09:06:38.231Z,99478.66
2022-08-29T09:09:12.057Z,99476.31
2022-08-29T09:11:46.869Z,99468.59
2022-08-29T09:14:48.907Z,99471.59
2022-08-29T09:17:24.274Z,99458.50
2022-08-29T09:19:51.966Z,99462.03
2022-08-29T09:22:32.740Z,99466.72
2022-08-29T09:25:08.054Z,99468.03
2022-08-29T09:27:36.581Z,99471.56
2022-08-29T09:30:03.173Z,99459.44
2022-08-29T09:32:29.797Z,99457.59
2022-08-29T09:35:08.502Z,99457.78
2022-08-29T09:37:36.300Z,99462.81
2022-08-29T09:40:10.774Z,99450.69
2022-08-29T09:42:41.652Z,99447.97
2022-08-29T09:45:21.948Z,99444.22
2022-08-29T09:47:48.647Z,99445.34
2022-08-29T09:50:26.461Z,99442.66
2022-08-29T09:53:01.120Z,99443.63
2022-08-29T09:55:33.532Z,99442.25
2022-08-29T09:58:04.911Z,99445.44
2022-08-29T10:00:38.834Z,99443.00
2022-08-29T10:03:10.176Z,99443.75
2022-08-29T10:05:44.516Z,99447.50
2022-08-29T10:08:35.278Z,99438.47
2022-08-29T10:11:06.972Z,99440.06
2022-08-29T10:13:52.194Z,99443.28
2022-08-29T10:16:27.851Z,99451.16
2022-08-29T10:19:03.426Z,99439.28
2022-08-29T10:21:59.525Z,99441.66
2022-08-29T10:24:29.117Z,99441.97
2022-08-29T10:27:07.753Z,99446.19
2022-08-29T10:30:16.409Z,99452.16
2022-08-29T10:33:15.427Z,99455.41
2022-08-29T10:35:54.196Z,99445.41
2022-08-29T10:38:27.159Z,99448.50
2022-08-29T10:41:02.773Z,99452.47
2022-08-29T10:43:51.388Z,99449.03
2022-08-29T10:46:51.261Z,99442.59
2022-08-29T10:49:53.212Z,99439.16
2022-08-29T10:52:34.081Z,99438.88
2022-08-29T10:55:30.340Z,99441.72
2022-08-29T10:58:02.835Z,99438.44
2022-08-29T11:00:43.497Z,99439.56
2022-08-29T11:03:28.648Z,99438.72
2022-08-29T11:06:01.689Z,99439.75
2022-08-29T11:08:38.293Z,99428.16
2022-08-29T11:11:04.974Z,99435.09
2022-08-29T11:13:39.596Z,99431.69
2022-08-29T11:16:14.637Z,99428.41
2022-08-29T11:18:47.154Z,99424.78
2022-08-29T11:21:24.171Z,99426.31
2022-08-29T11:23:50.844Z,99426.13
2022-08-29T11:26:36.569Z,99420.03
2022-08-29T11:29:41.629Z,99421.91
2022-08-29T11:32:35.967Z,99416.94
2022-08-29T11:35:28.970Z,99418.50
2022-08-29T11:38:20.474Z,99414.59
2022-08-29T11:44:11.298Z,99404.34
2022-08-29T11:46:42.984Z,99405.31
2022-08-29T11:49:39.152Z,99399.94
2022-08-29T11:52:08.831Z,99402.16
2022-08-29T11:54:35.596Z,99401.41
2022-08-29T11:57:02.323Z,99402.81
2022-08-29T11:59:54.581Z,99407.66
2022-08-29T12:02:30.334Z,99402.88
2022-08-29T12:05:04.884Z,99394.00
2022-08-29T12:07:51.991Z,99387.94
2022-08-29T12:10:24.070Z,99391.97
2022-08-29T12:12:51.826Z,99392.59
2022-08-29T12:15:27.283Z,99392.78
2022-08-29T12:18:03.443Z,99389.25
2022-08-29T12:20:30.419Z,99383.38
2022-08-29T12:23:12.686Z,99385.03
2022-08-29T12:25:59.318Z,99386.91
2022-08-29T12:28:47.092Z,99384.97
2022-08-29T12:31:36.167Z,99371.72
2022-08-29T12:34:23.649Z,99371.06
2022-08-29T12:37:28.829Z,99369.81
2022-08-29T12:40:21.356Z,99358.63
2022-08-29T12:43:06.616Z,99362.72
2022-08-29T12:45:36.033Z,99358.88
2022-08-29T12:48:11.991Z,99356.56
2022-08-29T12:50:45.375Z,99347.50
2022-08-29T12:53:30.215Z,99354.09
2022-08-29T12:55:59.992Z,99346.59
2022-08-29T12:58:54.627Z,99349.53
2022-08-29T13:01:39.084Z,99329.38
2022-08-29T13:04:14.755Z,99327.84
2022-08-29T13:06:59.034Z,99326.66
2022-08-29T13:09:41.318Z,99320.00
2022-08-29T13:12:13.222Z,99326.22
2022-08-29T13:14:54.193Z,99321.09
2022-08-29T13:17:41.632Z,99318.34
2022-08-29T13:20:36.337Z,99311.81
2022-08-29T13:23:05.721Z,99314.22
2022-08-29T13:25:37.547Z,99315.84
2022-08-29T13:28:04.464Z,99305.16
2022-08-29T13:30:31.031Z,99300.38
2022-08-29T13:32:57.661Z,99301.19
2022-08-29T13:35:32.889Z,99304.88
2022-08-29T13:38:30.115Z,99301.88
2022-08-29T13:40:58.785Z,99291.22
2022-08-29T13:43:41.502Z,99295.50
2022-08-29T13:46:21.931Z,99281.09
2022-08-29T13:48:58.856Z,99285.97
2022-08-29T13:51:25.520Z,99278.13
2022-08-29T13:53:53.135Z,99276.41
2022-08-29T13:56:23.432Z,99281.72
2022-08-29T13:58:51.249Z,99282.91
2022-08-29T14:01:30.153Z,99276.88
2022-08-29T14:03:58.083Z,99263.22
2022-08-29T14:06:27.918Z,99267.16
2022-08-29T14:08:55.080Z,99264.06
2022-08-29T14:11:21.758Z,99259.25
2022-08-29T14:13:49.280Z,99261.69
2022-08-29T14:16:16.097Z,99250.41
2022-08-29T14:18:44.017Z,99247.91
2022-08-29T14:21:10.635Z,99245.00
2022-08-29T14:23:37.370Z,99245.78
2022-08-29T14:26:04.112Z,99247.16
2022-08-29T14:28:30.668Z,99251.09
2022-08-29T14:30:57.351Z,99249.00
2022-08-29T14:33:24.061Z,99251.75
2022-08-29T14:35:51.402Z,99256.00
2022-08-29T14:38:18.339Z,99260.00
2022-08-29T14:40:45.318Z,99246.00
2022-08-29T14:43:13.699Z,99245.41
2022-08-29T14:45:40.309Z,99239.38
2022-08-29T14:48:06.986Z,99248.72
2022-08-29T14:50:33.672Z,99245.88
2022-08-29T14:53:00.243Z,99249.31
2022-08-29T14:55:27.289Z,99249.66
2022-08-29T14:57:53.928Z,99243.25
2022-08-29T15:00:25.906Z,99248.59
2022-08-29T15:02:52.727Z,99243.88
2022-08-29T15:05:19.973Z,99250.31
2022-08-29T15:07:47.057Z,99251.97
2022-08-29T15:10:15.108Z,99252.88
2022-08-29T15:12:42.053Z,99248.81
2022-08-29T15:15:09.525Z,99243.84
2022-08-29T15:17:36.985Z,99240.97
2022-08-29T15:22:52.223Z,99242.25
2022-08-29T15:25:19.398Z,99235.44
2022-08-29T15:27:46.954Z,99234.25
2022-08-29T15:30:19.538Z,99229.13
2022-08-29T15:32:46.209Z,99225.44
2022-08-29T15:35:16.194Z,99218.03
2022-08-29T15:37:42.862Z,99223.25
2022-08-29T15:40:13.219Z,99230.72
2022-08-29T15:42:40.700Z,99225.00
2022-08-29T15:45:08.987Z,99224.69
2022-08-29T15:47:38.028Z,99224.06
2022-08-29T15:50:07.211Z,99229.94
2022-08-29T15:52:34.450Z,99220.84
2022-08-29T15:55:01.065Z,99225.97
2022-08-29T15:57:28.175Z,99222.06
2022-08-29T15:59:57.926Z,99222.13
2022-08-29T16:02:25.621Z,99221.41
2022-08-29T16:04:56.435Z,99223.88
2022-08-29T16:07:25.397Z,99215.50
2022-08-29T16:09:56.360Z,99217.28
2022-08-29T16:12:22.969Z,99218.94
2022-08-29T16:15:09.442Z,99212.31
2022-08-29T16:17:36.248Z,99220.06
2022-08-29T16:20:04.145Z,99217.03
2022-08-29T16:22:31.357Z,99214.56
2022-08-29T16:24:58.416Z,99215.44
2022-08-29T16:27:25.054Z,99212.75
2022-08-29T16:29:53.148Z,99212.56
2022-08-29T16:32:20.260Z,99216.34
2022-08-29T16:34:46.926Z,99218.50
2022-08-29T16:37:13.677Z,99211.41
2022-08-29T16:39:40.258Z,99211.41
2022-08-29T16:42:06.977Z,99215.03
2022-08-29T16:44:33.967Z,99221.50
2022-08-29T16:47:00.515Z,99215.25
2022-08-29T16:49:27.140Z,99210.69
2022-08-29T16:51:53.780Z,99216.56
2022-08-29T16:54:20.387Z,99212.38
2022-08-29T16:56:47.034Z,99219.06
2022-08-29T16:59:13.614Z,99212.44
2022-08-29T17:01:49.359Z,99219.91
2022-08-29T17:04:23.374Z,99213.66
2022-08-29T17:06:50.151Z,99215.75
2022-08-29T17:09:18.881Z,99213.88
2022-08-29T17:11:46.041Z,99221.38
2022-08-29T17:14:13.608Z,99230.34
2022-08-29T17:16:41.746Z,99223.22
2022-08-29T17:19:08.901Z,99223.00
2022-08-29T17:21:36.883Z,99213.19
2022-08-29T17:24:06.874Z,99216.31
2022-08-29T17:26:35.818Z,99210.91
2022-08-29T17:29:02.884Z,99204.41
2022-08-29T17:31:30.200Z,99208.34
2022-08-29T17:34:05.827Z,99215.22
2022-08-29T17:36:33.838Z,99216.00
2022-08-29T17:39:00.869Z,99214.53
2022-08-29T17:41:27.574Z,99210.13
2022-08-29T17:43:55.656Z,99206.34
2022-08-29T17:46:22.854Z,99214.63
2022-08-29T17:48:49.514Z,99214.81
2022-08-29T17:51:16.380Z,99215.16
2022-08-29T17:53:43.135Z,99221.97
2022-08-29T17:56:24.773Z,99227.53
2022-08-29T17:58:51.554Z,99228.94
2022-08-29T18:01:18.225Z,99227.84
2022-08-29T18:03:45.497Z,99220.91
2022-08-29T18:06:14.842Z,99222.47
2022-08-29T18:08:45.877Z,99228.66
2022-08-29T18:11:16.215Z,99230.41
2022-08-29T18:13:43.001Z,99226.38
2022-08-29T18:16:10.503Z,99230.03
2022-08-29T18:18:38.317Z,99232.06
2022-08-29T18:21:05.097Z,99236.53
2022-08-29T18:23:31.660Z,99240.13
2022-08-29T18:25:58.294Z,99243.56
2022-08-29T18:28:25.058Z,99251.13
2022-08-29T18:30:52.211Z,99247.72
2022-08-29T18:33:19.034Z,99248.38
2022-08-29T18:35:46.210Z,99254.53
2022-08-29T18:38:13.240Z,99254.34
2022-08-29T18:40:40.089Z,99259.66
2022-08-29T18:43:09.824Z,99256.59
2022-08-29T18:45:37.299Z,99266.44
2022-08-29T18:48:04.554Z,99265.38
2022-08-29T18:50:37.005Z,99269.88
2022-08-29T18:53:15.787Z,99284.13
2022-08-29T18:55:50.568Z,99285.41
2022-08-29T18:58:22.798Z,99287.78
2022-08-29T19:00:50.302Z,99298.44
2022-08-29T19:03:17.141Z,99298.31
2022-08-29T19:05:48.438Z,99301.34
2022-08-29T19:08:17.475Z,99299.03
2022-08-29T19:10:45.369Z,99309.00
2022-08-29T19:13:12.938Z,99295.97
2022-08-29T19:15:41.516Z,99306.81
2022-08-29T19:18:09.585Z,99304.47
2022-08-29T19:20:54.912Z,99306.41
2022-08-29T19:23:22.391Z,99314.66
2022-08-29T19:25:48.978Z,99319.59
2022-08-29T19:28:17.100Z,99322.97
2022-08-29T19:30:43.955Z,99323.50
2022-08-29T19:33:12.254Z,99331.75
2022-08-29T19:35:39.161Z,99338.97
2022-08-29T19:38:07.371Z,99337.28
2022-08-29T19:40:39.238Z,99336.31
2022-08-29T19:43:24.118Z,99327.09
2022-08-29T19:45:51.825Z,99331.16
2022-08-29T19:48:18.747Z,99333.31
2022-08-29T19:50:47.807Z,99326.28
2022-08-29T19:53:17.061Z,99333.16
2022-08-29T19:55:51.398Z,99333.00
2022-08-29T19:58:17.957Z,99333.81
2022-08-29T20:00:45.785Z,99334.13
2022-08-29T20:03:12.412Z,99337.78
2022-08-29T20:05:39.386Z,99343.28
2022-08-29T20:08:06.015Z,99341.59
2022-08-29T20:10:32.998Z,99342.94
2022-08-29T20:13:00.111Z,99342.59
2022-08-29T20:15:30.856Z,99339.72
2022-08-29T20:17:59.866Z,99351.25
2022-08-29T20:20:31.171Z,99344.84
2022-08-29T20:22:57.811Z,99353.53
2022-08-29T20:25:24.824Z,99353.19
2022-08-29T20:27:51.987Z,99352.13
2022-08-29T20:30:23.061Z,99351.09
2022-08-29T20:32:50.623Z,99352.88
2022-08-29T20:35:37.982Z,99357.34
2022-08-29T20:38:04.767Z,99349.41
2022-08-29T20:40:31.455Z,99352.56
2022-08-29T20:42:58.591Z,99361.06
2022-08-29T20:45:25.163Z,99354.50
2022-08-29T20:47:52.395Z,99367.69
2022-08-29T20:50:19.043Z,99365.78
2022-08-29T20:52:46.567Z,99367.25
2022-08-29T20:55:13.667Z,99366.19
2022-08-29T20:57:41.227Z,99373.00
2022-08-29T21:00:09.410Z,99375.28
2022-08-29T21:02:54.387Z,99372.53
2022-08-29T21:05:39.609Z,99365.81
2022-08-29T21:08:06.570Z,99369.25
2022-08-29T21:10:34.413Z,99375.06
2022-08-29T21:13:01.267Z,99367.66
2022-08-29T21:15:28.015Z,99373.31
2022-08-29T21:17:55.014Z,99362.34
2022-08-29T21:20:21.742Z,99370.44
2022-08-29T21:22:48.329Z,99364.69
2022-08-29T21:25:15.224Z,99381.31
2022-08-29T21:27:41.810Z,99377.41
2022-08-29T21:30:09.015Z,99376.56
2022-08-29T21:32:35.663Z,99380.88
2022-08-29T21:35:02.221Z,99382.13
2022-08-29T21:37:28.871Z,99387.09
2022-08-29T21:39:55.471Z,99384.16
2022-08-29T21:42:22.032Z,99380.25
2022-08-29T21:44:48.569Z,99379.88
2022-08-29T21:47:17.882Z,99381.00
2022-08-29T21:49:44.786Z,99378.78
2022-08-29T21:52:11.448Z,99381.34
2022-08-29T21:54:38.021Z,99378.25
2022-08-29T21:57:04.867Z,99375.19
2022-08-29T21:59:31.377Z,99373.38
2022-08-29T22:01:58.658Z,99377.31
2022-08-29T22:04:28.317Z,99369.75
2022-08-29T22:06:57.232Z,99367.38
2022-08-29T22:09:23.844Z,99371.31
2022-08-29T22:11:51.915Z,99369.91
2022-08-29T22:14:18.475Z,99373.88
2022-08-29T22:16:45.018Z,99373.31
2022-08-29T22:19:14.993Z,99377.22
2022-08-29T22:21:47.263Z,99382.00
2022-08-29T22:24:15.151Z,99383.13
2022-08-29T22:26:42.912Z,99386.22
2022-08-29T22:29:11.929Z,99383.13
2022-08-29T22:31:40.445Z,99385.41
2022-08-29T22:34:10.794Z,99380.63
2022-08-29T22:36:37.366Z,99382.59
2022-08-29T22:39:05.066Z,99377.69
2022-08-29T22:41:31.647Z,99377.16
2022-08-29T22:46:47.644Z,99378.84
2022-08-29T22:49:14.381Z,99380.09
2022-08-29T22:51:40.918Z,99381.22
2022-08-29T22:54:25.803Z,99370.00
2022-08-29T22:56:54.379Z,99378.53
2022-08-29T22:59:21.565Z,99381.50
2022-08-29T23:01:48.144Z,99388.78
2022-08-29T23:04:15.223Z,99389.75
2022-08-29T23:06:41.858Z,99380.94
2022-08-29T23:09:08.469Z,99391.16
2022-08-29T23:11:35.542Z,99394.94
2022-08-29T23:14:02.265Z,99395.22
2022-08-29T23:16:29.056Z,99396.34
2022-08-29T23:18:55.693Z,99398.44
2022-08-29T23:21:24.805Z,99399.72
2022-08-29T23:23:51.599Z,99401.66
2022-08-29T23:26:19.270Z,99405.59
2022-08-29T23:28:46.867Z,99407.97
2022-08-29T23:31:15.061Z,99402.75
2022-08-29T23:33:42.040Z,99394.03
2022-08-29T23:36:09.098Z,99400.50
2022-08-29T23:38:36.053Z,99408.16
2022-08-29T23:41:02.882Z,99411.81
2022-08-29T23:43:31.472Z,99414.72
2022-08-29T23:46:03.792Z,99410.91
2022-08-29T23:48:30.592Z,99403.94
2022-08-29T23:50:57.205Z,99406.13
2022-08-29T23:53:24.170Z,99404.47
2022-08-29T23:55:51.123Z,99405.44
2022-08-29T23:58:18.377Z,99404.72
